F/V J. Louis Vincent — FQBL — position and weather

sailwx.info

Track history (hours):
 
Tides and Currents Weather Stations Pressure Air Temp Water Temp Dewpoint Dewpoint Depression Visibility Wind Speed Wind Dir Waves Ship Positions

F/V J. Louis Vincent

Last reported at 2014-Jul-30 13:29 UTC. Time now 2014-Jul-31 03:19 UTC.
Position N 43°13' E 003°39'.

Length 29 m.

Type: Fishing. MMSI: 227146600.

Date/timePositionNaut miles runAvg speedWind from/ knotsBaromVisibWave heightAir tempDewpointWater temp
2014-Jul-30 13:29N 43°13' E 003°39'5 4.3
2014-Jul-30 12:17N 43°08' E 003°37'3 4.8
2014-Jul-30 11:33N 43°05' E 003°38'4 4.4
2014-Jul-30 10:32N 43°01' E 003°40'1 1.2
2014-Jul-30 09:33N 43°00' E 003°41'4 4.4
2014-Jul-30 08:33N 42°59' E 003°47'4 4.3
2014-Jul-30 07:33N 42°60' E 003°53'3 3.0
2014-Jul-30 06:34N 42°57' E 003°56'4 4.1
2014-Jul-30 05:28N 42°59' E 003°50'4 4.4
2014-Jul-30 04:33N 43°01' E 003°45'5 4.4
2014-Jul-30 03:32N 43°05' E 003°43'4 4.3
2014-Jul-30 02:33N 43°09' E 003°42'6 0.4
2014-Jul-29 11:21N 43°04' E 003°45'3 4.1
2014-Jul-29 10:32N 43°01' E 003°47'4 3.6
2014-Jul-29 09:33N 43°00' E 003°52'4 4.4
2014-Jul-29 08:33N 42°60' E 003°58'4 4.4
2014-Jul-29 07:33N 42°59' E 004°04'1 1.0
2014-Jul-29 06:25N 42°59' E 004°03'4 4.6
2014-Jul-29 05:30N 42°60' E 003°57'4 4.4
2014-Jul-29 04:31N 43°02' E 003°52'4 4.5
2014-Jul-29 03:33N 43°05' E 003°48'5 4.5
2014-Jul-29 02:33N 43°09' E 003°44'20 1.3
2014-Jul-28 10:33N 42°59' E 004°09'5 4.4
2014-Jul-28 09:29N 42°59' E 004°15'4 4.4
2014-Jul-28 08:29N 42°58' E 004°21'4 4.4
2014-Jul-28 07:30N 42°54' E 004°25'3 2.7
2014-Jul-28 06:33N 42°56' E 004°27'4 3.8
2014-Jul-28 05:24N 42°60' E 004°23'19 6.8
2014-Jul-28 02:32N 43°10' E 004°00'  
2014-Jul-25 14:05N 43°04' E 003°48'4 7.1
2014-Jul-25 13:33N 43°00' E 003°49'14 4.0
2014-Jul-25 10:04N 42°54' E 004°07'2 4.4
2014-Jul-25 09:33N 42°54' E 004°10'5 4.3
2014-Jul-25 08:27N 42°52' E 004°16'4 3.9
2014-Jul-25 07:33N 42°49' E 004°17'2 2.0
2014-Jul-25 06:32N 42°47' E 004°16'4 4.2
2014-Jul-25 05:32N 42°51' E 004°16'4 4.4
2014-Jul-25 04:33N 42°54' E 004°12'6 0.3
2014-Jul-24 10:30N 42°56' E 004°04'4 4.4
2014-Jul-24 09:31N 42°54' E 004°09'4 4.3
2014-Jul-24 08:33N 42°52' E 004°15'0 0.1
2014-Jul-24 05:31N 42°52' E 004°15'5 4.3
2014-Jul-24 04:22N 42°57' E 004°15'6 7.2
2014-Jul-24 03:30N 43°02' E 004°10'1111.5
2014-Jul-24 02:33N 43°10' E 004°00'19 2.0
2014-Jul-23 17:07N 43°24' E 003°42'0 0.7
2014-Jul-23 16:31N 43°24' E 003°42'1 0.9
2014-Jul-23 15:32N 43°23' E 003°42'1010.3
2014-Jul-23 14:33N 43°14' E 003°49'7 7.3
2014-Jul-23 13:33N 43°08' E 003°54'5 4.6
2014-Jul-23 12:33N 43°04' E 003°58'5 4.6
2014-Jul-23 11:32N 43°01' E 004°02'4 3.6
2014-Jul-23 10:32N 43°00' E 004°07'4 4.4
2014-Jul-23 09:31N 42°59' E 004°13'6 4.4
2014-Jul-23 08:11N 42°54' E 004°18'3 4.7
2014-Jul-23 07:29N 42°51' E 004°19'2 1.6
2014-Jul-23 06:28N 42°50' E 004°18'8 4.3
2014-Jul-23 04:33N 42°54' E 004°08'7 5.7
2014-Jul-23 03:18N 42°59' E 004°00'1211.6
2014-Jul-23 02:18N 43°08' E 003°52'8 0.6
2014-Jul-22 12:18N 43°04' E 003°43'3 4.4
2014-Jul-22 11:32N 43°01' E 003°46'2 2.2
2014-Jul-22 10:25N 42°59' E 003°47'3 3.4
2014-Jul-22 09:33N 42°60' E 003°51'5 4.5
2014-Jul-22 08:31N 42°60' E 003°57'6 5.5
2014-Jul-22 07:27N 42°59' E 004°05'1 1.3
2014-Jul-22 06:27N 42°59' E 004°03'20 1.3
2014-Jul-21 14:33N 43°14' E 003°45'5 4.9
2014-Jul-21 13:33N 43°10' E 003°47'15 3.6
2014-Jul-21 09:26N 43°01' E 004°04'9 4.3
2014-Jul-21 07:25N 42°60' E 004°15'2 1.6
2014-Jul-21 06:12N 43°01' E 004°13'3 4.3
2014-Jul-21 05:30N 43°02' E 004°10'6 4.4
2014-Jul-21 04:06N 43°04' E 004°02'3 4.1
2014-Jul-21 03:26N 43°06' E 003°59'  
Track history (hours):
 
Tides and Currents Weather Stations Pressure Air Temp Water Temp Dewpoint Dewpoint Depression Visibility Wind Speed Wind Dir Waves Ship Positions

F/V J. Louis Vincent

Last reported at 2014-Jul-30 13:29 UTC. Time now 2014-Jul-31 03:19 UTC.
Position N 43°13' E 003°39'.

Length 29 m.

Type: Fishing. MMSI: 227146600.

Date/timePositionNaut miles runAvg speedWind from/ knotsBaromVisibWave heightAir tempDewpointWater temp
2014-Jul-30 13:29N 43°13' E 003°39'5 4.3
2014-Jul-30 12:17N 43°08' E 003°37'3 4.8
2014-Jul-30 11:33N 43°05' E 003°38'4 4.4
2014-Jul-30 10:32N 43°01' E 003°40'1 1.2
2014-Jul-30 09:33N 43°00' E 003°41'4 4.4
2014-Jul-30 08:33N 42°59' E 003°47'4 4.3
2014-Jul-30 07:33N 42°60' E 003°53'3 3.0
2014-Jul-30 06:34N 42°57' E 003°56'4 4.1
2014-Jul-30 05:28N 42°59' E 003°50'4 4.4
2014-Jul-30 04:33N 43°01' E 003°45'5 4.4
2014-Jul-30 03:32N 43°05' E 003°43'4 4.3
2014-Jul-30 02:33N 43°09' E 003°42'6 0.4
2014-Jul-29 11:21N 43°04' E 003°45'3 4.1
2014-Jul-29 10:32N 43°01' E 003°47'4 3.6
2014-Jul-29 09:33N 43°00' E 003°52'4 4.4
2014-Jul-29 08:33N 42°60' E 003°58'4 4.4
2014-Jul-29 07:33N 42°59' E 004°04'1 1.0
2014-Jul-29 06:25N 42°59' E 004°03'4 4.6
2014-Jul-29 05:30N 42°60' E 003°57'4 4.4
2014-Jul-29 04:31N 43°02' E 003°52'4 4.5
2014-Jul-29 03:33N 43°05' E 003°48'5 4.5
2014-Jul-29 02:33N 43°09' E 003°44'20 1.3
2014-Jul-28 10:33N 42°59' E 004°09'5 4.4
2014-Jul-28 09:29N 42°59' E 004°15'4 4.4
2014-Jul-28 08:29N 42°58' E 004°21'4 4.4
2014-Jul-28 07:30N 42°54' E 004°25'3 2.7
2014-Jul-28 06:33N 42°56' E 004°27'4 3.8
2014-Jul-28 05:24N 42°60' E 004°23'19 6.8
2014-Jul-28 02:32N 43°10' E 004°00'  
2014-Jul-25 14:05N 43°04' E 003°48'4 7.1
2014-Jul-25 13:33N 43°00' E 003°49'14 4.0
2014-Jul-25 10:04N 42°54' E 004°07'2 4.4
2014-Jul-25 09:33N 42°54' E 004°10'5 4.3
2014-Jul-25 08:27N 42°52' E 004°16'4 3.9
2014-Jul-25 07:33N 42°49' E 004°17'2 2.0
2014-Jul-25 06:32N 42°47' E 004°16'4 4.2
2014-Jul-25 05:32N 42°51' E 004°16'4 4.4
2014-Jul-25 04:33N 42°54' E 004°12'6 0.3
2014-Jul-24 10:30N 42°56' E 004°04'4 4.4
2014-Jul-24 09:31N 42°54' E 004°09'4 4.3
2014-Jul-24 08:33N 42°52' E 004°15'0 0.1
2014-Jul-24 05:31N 42°52' E 004°15'5 4.3
2014-Jul-24 04:22N 42°57' E 004°15'6 7.2
2014-Jul-24 03:30N 43°02' E 004°10'1111.5
2014-Jul-24 02:33N 43°10' E 004°00'19 2.0
2014-Jul-23 17:07N 43°24' E 003°42'0 0.7
2014-Jul-23 16:31N 43°24' E 003°42'1 0.9
2014-Jul-23 15:32N 43°23' E 003°42'1010.3
2014-Jul-23 14:33N 43°14' E 003°49'7 7.3
2014-Jul-23 13:33N 43°08' E 003°54'5 4.6
2014-Jul-23 12:33N 43°04' E 003°58'5 4.6
2014-Jul-23 11:32N 43°01' E 004°02'4 3.6
2014-Jul-23 10:32N 43°00' E 004°07'4 4.4
2014-Jul-23 09:31N 42°59' E 004°13'6 4.4
2014-Jul-23 08:11N 42°54' E 004°18'3 4.7
2014-Jul-23 07:29N 42°51' E 004°19'2 1.6
2014-Jul-23 06:28N 42°50' E 004°18'8 4.3
2014-Jul-23 04:33N 42°54' E 004°08'7 5.7
2014-Jul-23 03:18N 42°59' E 004°00'1211.6
2014-Jul-23 02:18N 43°08' E 003°52'8 0.6
2014-Jul-22 12:18N 43°04' E 003°43'3 4.4
2014-Jul-22 11:32N 43°01' E 003°46'2 2.2
2014-Jul-22 10:25N 42°59' E 003°47'3 3.4
2014-Jul-22 09:33N 42°60' E 003°51'5 4.5
2014-Jul-22 08:31N 42°60' E 003°57'6 5.5
2014-Jul-22 07:27N 42°59' E 004°05'1 1.3
2014-Jul-22 06:27N 42°59' E 004°03'20 1.3
2014-Jul-21 14:33N 43°14' E 003°45'5 4.9
2014-Jul-21 13:33N 43°10' E 003°47'15 3.6
2014-Jul-21 09:26N 43°01' E 004°04'9 4.3
2014-Jul-21 07:25N 42°60' E 004°15'2 1.6
2014-Jul-21 06:12N 43°01' E 004°13'3 4.3
2014-Jul-21 05:30N 43°02' E 004°10'6 4.4
2014-Jul-21 04:06N 43°04' E 004°02'3 4.1
2014-Jul-21 03:26N 43°06' E 003°59'  

Dump ship's entire track history